Time;durP1;ratioP1;P1;durP2;ratioP2;P2;SDS_P1;SDS_P2;PMS_P1;PMS_P2;Temp;Humidity;BMP_temperature;BMP_pressure;BME280_temperature;BME280_humidity;BME280_pressure;Samples;Min_cycle;Max_cycle;Signal;HPM_P1;HPM_P2
2022/11/05 00:10:15;;;;;;;;;;;9.90;99.90;;;;;;4942925;29;20007;-82
2022/11/05 00:18:10;;;;;;;;;;;10.00;99.90;;;;;;4945121;28;19972;-84
2022/11/05 00:20:35;;;;;;;;;;;10.00;99.90;;;;;;4949047;28;20272;-87
2022/11/05 00:25:52;;;;;;;;;;;9.90;99.90;;;;;;4949701;28;20011;-86
2022/11/05 00:28:18;;;;;;;;;;;9.90;99.90;;;;;;4949299;29;20423;-86
2022/11/05 00:30:43;;;;;;;;;;;9.90;99.90;;;;;;4949299;28;19922;-85
2022/11/05 00:33:09;;;;;;;;;;;9.90;99.90;;;;;;4938669;29;19914;-85
2022/11/05 00:35:34;;;;;;;;;;;9.90;99.90;;;;;;4946969;28;19932;-86
2022/11/05 00:37:59;;;;;;;;;;;9.80;99.90;;;;;;4949399;29;20281;-85
2022/11/05 00:40:25;;;;;;;;;;;9.80;99.90;;;;;;4936039;28;20381;-86
2022/11/05 00:45:36;;;;;;;;;;;9.80;99.90;;;;;;4933033;28;20397;-85
2022/11/05 00:50:45;;;;;;;;;;;9.80;99.90;;;;;;4942731;28;20772;-85
2022/11/05 00:53:11;;;;;;;;;;;9.70;99.90;;;;;;4949030;29;19914;-86
2022/11/05 00:55:38;;;;;;;;;;;9.80;99.90;;;;;;4946922;28;20321;-86
2022/11/05 00:58:19;;;;;;;;;;;9.70;99.90;;;;;;4950972;29;19911;-86
2022/11/05 01:00:49;;;;;;;;;;;9.80;99.90;;;;;;4951023;28;20518;-82
2022/11/05 01:03:15;;;;;;;;;;;9.90;99.90;;;;;;4938063;29;20001;-84
2022/11/05 01:05:45;;;;;;;;;;;9.80;99.90;;;;;;4953231;28;20002;-85
2022/11/05 01:08:11;;;;;;;;;;;9.80;99.90;;;;;;4949490;28;19915;-84
2022/11/05 01:10:44;;;;;;;;;;;9.80;99.90;;;;;;4949667;28;19922;-86
2022/11/05 01:13:10;;;;;;;;;;;9.70;99.90;;;;;;4943808;28;19906;-87
2022/11/05 01:15:36;;;;;;;;;;;9.70;99.90;;;;;;4943276;28;19962;-86
2022/11/05 01:18:02;;;;;;;;;;;9.80;99.90;;;;;;4941061;29;19954;-86
2022/11/05 01:20:28;;;;;;;;;;;9.60;99.90;;;;;;4952977;29;19911;-87
2022/11/05 01:22:53;;;;;;;;;;;9.60;99.90;;;;;;4947354;29;19970;-87
2022/11/05 01:25:19;;;;;;;;;;;9.50;99.90;;;;;;4943927;28;19914;-85
2022/11/05 01:27:44;;;;;;;;;;;9.50;99.90;;;;;;4947968;28;19994;-86
2022/11/05 01:30:10;;;;;;;;;;;9.50;99.90;;;;;;4951023;28;19950;-86
2022/11/05 01:32:35;;;;;;;;;;;9.50;99.90;;;;;;4955733;28;19921;-87
2022/11/05 01:35:01;;;;;;;;;;;9.50;99.90;;;;;;4946075;29;19910;-85
2022/11/05 01:37:27;;;;;;;;;;;9.50;99.90;;;;;;4951333;28;19915;-86
2022/11/05 01:39:52;;;;;;;;;;;9.40;99.90;;;;;;4951874;28;19913;-87
2022/11/05 01:42:22;;;;;;;;;;;9.40;99.90;;;;;;4939262;28;19914;-86
2022/11/05 01:44:52;;;;;;;;;;;9.50;99.90;;;;;;4956887;28;19949;-86
2022/11/05 01:47:26;;;;;;;;;;;9.50;99.90;;;;;;4948516;28;20001;-86
2022/11/05 01:49:52;;;;;;;;;;;9.40;99.90;;;;;;4939979;28;19918;-86
2022/11/05 01:52:18;;;;;;;;;;;9.40;99.90;;;;;;4950856;28;19911;-85
2022/11/05 01:54:44;;;;;;;;;;;9.40;99.90;;;;;;4953414;28;19913;-85
2022/11/05 01:57:10;;;;;;;;;;;9.40;99.90;;;;;;4954939;28;19945;-86
2022/11/05 01:59:47;;;;;;;;;;;9.30;99.90;;;;;;4951139;29;19910;-87
2022/11/05 02:02:13;;;;;;;;;;;9.30;99.90;;;;;;4944317;28;20308;-88
2022/11/05 02:04:41;;;;;;;;;;;9.30;99.90;;;;;;4952171;29;19910;-87
2022/11/05 02:07:08;;;;;;;;;;;9.20;99.90;;;;;;4949333;28;20500;-86
2022/11/05 02:09:37;;;;;;;;;;;9.30;99.90;;;;;;4947877;28;19921;-87
2022/11/05 02:12:02;;;;;;;;;;;9.30;99.90;;;;;;4936765;28;19929;-86
2022/11/05 02:14:28;;;;;;;;;;;9.20;99.90;;;;;;4945315;28;19910;-87
2022/11/05 02:16:56;;;;;;;;;;;9.20;99.90;;;;;;4941112;28;19910;-86
2022/11/05 02:19:41;;;;;;;;;;;9.20;99.90;;;;;;4963710;28;19906;-88
2022/11/05 02:22:18;;;;;;;;;;;9.10;99.90;;;;;;4955853;28;19924;-84
2022/11/05 02:24:54;;;;;;;;;;;9.10;99.90;;;;;;4944836;28;19985;-87
2022/11/05 02:27:25;;;;;;;;;;;9.00;99.90;;;;;;4945498;28;20033;-87
2022/11/05 02:30:02;;;;;;;;;;;9.00;99.90;;;;;;4948099;28;19964;-87
2022/11/05 02:32:47;;;;;;;;;;;8.90;99.90;;;;;;4961140;28;20433;-87
2022/11/05 02:35:16;;;;;;;;;;;8.80;99.90;;;;;;4960257;28;19917;-88
2022/11/05 02:37:47;;;;;;;;;;;8.70;99.90;;;;;;4960034;28;20572;-87
2022/11/05 02:40:12;;;;;;;;;;;8.70;99.90;;;;;;4954096;28;19917;-86
2022/11/05 02:42:42;;;;;;;;;;;8.70;99.90;;;;;;4941344;28;19921;-86
2022/11/05 02:45:11;;;;;;;;;;;8.70;99.90;;;;;;4961677;28;19910;-87
2022/11/05 02:47:41;;;;;;;;;;;8.60;99.90;;;;;;4960628;28;19914;-87
2022/11/05 02:50:25;;;;;;;;;;;8.50;99.90;;;;;;4954898;28;19914;-87
2022/11/05 02:52:58;;;;;;;;;;;8.50;99.90;;;;;;4951728;29;19910;-87
2022/11/05 02:55:23;;;;;;;;;;;8.40;99.90;;;;;;4954391;28;20003;-85
2022/11/05 02:57:49;;;;;;;;;;;8.30;99.90;;;;;;4968207;28;19980;-87
2022/11/05 03:00:33;;;;;;;;;;;8.30;99.90;;;;;;4943602;28;20374;-87
2022/11/05 03:02:58;;;;;;;;;;;8.40;99.90;;;;;;4958860;28;19914;-88
2022/11/05 03:05:29;;;;;;;;;;;8.30;99.90;;;;;;4949062;29;20447;-87
2022/11/05 03:07:57;;;;;;;;;;;8.30;99.90;;;;;;4959606;28;19917;-87
2022/11/05 03:10:25;;;;;;;;;;;8.20;99.90;;;;;;4965737;28;19916;-87
2022/11/05 03:12:59;;;;;;;;;;;8.20;99.90;;;;;;4954056;28;19916;-86
2022/11/05 03:15:29;;;;;;;;;;;8.20;99.90;;;;;;4955900;28;19950;-82
2022/11/05 03:18:09;;;;;;;;;;;8.20;99.90;;;;;;4956248;28;20297;-87
2022/11/05 03:20:38;;;;;;;;;;;8.20;99.90;;;;;;4957019;28;19910;-87
2022/11/05 03:23:22;;;;;;;;;;;8.30;99.90;;;;;;4941129;28;20281;-87
2022/11/05 03:25:51;;;;;;;;;;;8.20;99.90;;;;;;4955550;28;19933;-88
2022/11/05 03:28:20;;;;;;;;;;;8.20;99.90;;;;;;4944517;28;20334;-84
2022/11/05 03:30:46;;;;;;;;;;;8.20;99.90;;;;;;4955724;28;19918;-87
2022/11/05 03:33:15;;;;;;;;;;;8.30;99.90;;;;;;4944343;28;19932;-87
2022/11/05 03:35:44;;;;;;;;;;;8.30;99.90;;;;;;4950276;28;19958;-85
2022/11/05 03:38:12;;;;;;;;;;;8.30;99.90;;;;;;4958601;28;19919;-86
2022/11/05 03:40:39;;;;;;;;;;;8.30;99.90;;;;;;4951111;28;19910;-85
2022/11/05 03:43:06;;;;;;;;;;;8.30;99.90;;;;;;4950065;29;19986;-85
2022/11/05 03:45:40;;;;;;;;;;;8.20;99.90;;;;;;4953362;28;20035;-86
2022/11/05 03:48:07;;;;;;;;;;;8.30;99.90;;;;;;4964494;28;20416;-86
2022/11/05 03:50:38;;;;;;;;;;;8.20;99.90;;;;;;4955264;28;19911;-86
2022/11/05 03:53:08;;;;;;;;;;;8.10;99.90;;;;;;4933408;28;20010;-84
2022/11/05 03:55:35;;;;;;;;;;;8.10;99.90;;;;;;4934681;29;19911;-86
2022/11/05 03:58:03;;;;;;;;;;;8.10;99.90;;;;;;4942428;28;19954;-88
2022/11/05 04:00:28;;;;;;;;;;;8.00;99.90;;;;;;4940520;28;19915;-87
2022/11/05 04:02:54;;;;;;;;;;;7.90;99.90;;;;;;4948663;28;19922;-87
2022/11/05 04:05:19;;;;;;;;;;;7.90;99.90;;;;;;4953792;28;19919;-87
2022/11/05 04:13:22;;;;;;;;;;;7.90;99.90;;;;;;4949328;29;20284;-86
2022/11/05 04:13:30;;;;;;;;;;;7.90;99.90;;;;;;4939395;28;19914;-87
2022/11/05 04:18:59;;;;;;;;;;;7.90;99.90;;;;;;4911625;29;19911;-86
2022/11/05 04:24:09;;;;;;;;;;;7.80;99.90;;;;;;4938091;28;19925;-87
2022/11/05 04:26:35;;;;;;;;;;;7.80;99.90;;;;;;4951481;28;19910;-87
2022/11/05 04:31:45;;;;;;;;;;;7.80;99.90;;;;;;4949590;28;20395;-88
2022/11/05 04:34:10;;;;;;;;;;;7.80;99.90;;;;;;4943424;28;19961;-87
2022/11/05 04:36:36;;;;;;;;;;;7.90;99.90;;;;;;4954509;28;19920;-87
2022/11/05 04:39:01;;;;;;;;;;;7.80;99.90;;;;;;4957991;28;19917;-86
2022/11/05 04:41:27;;;;;;;;;;;7.70;99.90;;;;;;4950036;28;19971;-86
2022/11/05 04:43:52;;;;;;;;;;;7.80;99.90;;;;;;4952041;28;19922;-86
2022/11/05 04:46:17;;;;;;;;;;;7.70;99.90;;;;;;4946972;28;19918;-86
2022/11/05 04:48:43;;;;;;;;;;;7.70;99.90;;;;;;4962123;28;19945;-85
2022/11/05 04:51:08;;;;;;;;;;;7.70;99.90;;;;;;4947831;29;19914;-87
2022/11/05 04:53:34;;;;;;;;;;;7.70;99.90;;;;;;4947840;28;19910;-82
2022/11/05 04:56:10;;;;;;;;;;;7.70;99.90;;;;;;4956804;28;19910;-85
2022/11/05 04:58:39;;;;;;;;;;;7.70;99.90;;;;;;4957517;28;19921;-88
2022/11/05 05:01:05;;;;;;;;;;;7.70;99.90;;;;;;4949105;28;20412;-86
2022/11/05 05:03:31;;;;;;;;;;;7.70;99.90;;;;;;4954874;28;20281;-86
2022/11/05 05:05:59;;;;;;;;;;;7.80;99.90;;;;;;4948225;28;19919;-87
2022/11/05 05:08:24;;;;;;;;;;;7.70;99.90;;;;;;4940435;28;19915;-87
2022/11/05 05:10:50;;;;;;;;;;;7.70;99.90;;;;;;4942455;28;19917;-86
2022/11/05 05:13:15;;;;;;;;;;;7.70;99.90;;;;;;4955909;28;19990;-88
2022/11/05 05:15:41;;;;;;;;;;;7.70;99.90;;;;;;4938541;29;19918;-86
2022/11/05 05:18:07;;;;;;;;;;;7.60;99.90;;;;;;4948718;29;19923;-87
2022/11/05 05:23:17;;;;;;;;;;;7.60;99.90;;;;;;4956767;28;19929;-85
2022/11/05 05:25:42;;;;;;;;;;;7.50;99.90;;;;;;4956483;28;19910;-87
2022/11/05 05:28:08;;;;;;;;;;;7.50;99.90;;;;;;4951446;29;20231;-86
2022/11/05 05:30:33;;;;;;;;;;;7.60;99.90;;;;;;4962651;28;19930;-86
2022/11/05 05:33:02;;;;;;;;;;;7.50;99.90;;;;;;4952960;28;19993;-87
2022/11/05 05:35:28;;;;;;;;;;;7.50;99.90;;;;;;4960262;28;19917;-88
2022/11/05 05:37:54;;;;;;;;;;;7.40;99.90;;;;;;4951513;28;19914;-87
2022/11/05 05:40:19;;;;;;;;;;;7.40;99.90;;;;;;4947781;28;19956;-87
2022/11/05 05:42:45;;;;;;;;;;;7.30;99.90;;;;;;4944995;28;19962;-85
2022/11/05 05:45:11;;;;;;;;;;;7.40;99.90;;;;;;4939186;29;19985;-87
2022/11/05 05:47:36;;;;;;;;;;;7.40;99.90;;;;;;4943921;29;20435;-87
2022/11/05 05:50:02;;;;;;;;;;;7.30;99.90;;;;;;4953401;28;20281;-86
2022/11/05 05:52:27;;;;;;;;;;;7.20;99.90;;;;;;4945288;28;19949;-86
2022/11/05 05:54:53;;;;;;;;;;;7.20;99.90;;;;;;4948421;28;19937;-86
2022/11/05 05:57:18;;;;;;;;;;;7.20;99.90;;;;;;4957955;28;19957;-87
2022/11/05 05:59:44;;;;;;;;;;;7.30;99.90;;;;;;4953966;28;20370;-86
2022/11/05 06:02:11;;;;;;;;;;;7.30;99.90;;;;;;4951390;28;19911;-88
2022/11/05 06:04:36;;;;;;;;;;;7.30;99.90;;;;;;4959374;28;20366;-87
2022/11/05 06:07:02;;;;;;;;;;;7.30;99.90;;;;;;4956263;28;19917;-86
2022/11/05 06:09:27;;;;;;;;;;;7.30;99.90;;;;;;4945581;28;19906;-86
2022/11/05 06:11:53;;;;;;;;;;;7.30;99.90;;;;;;4958250;28;19910;-85
2022/11/05 06:14:18;;;;;;;;;;;7.20;99.90;;;;;;4950923;28;19977;-86
2022/11/05 06:16:43;;;;;;;;;;;7.30;99.90;;;;;;4951160;29;19973;-86
2022/11/05 06:19:09;;;;;;;;;;;7.30;99.90;;;;;;4946055;28;20374;-87
2022/11/05 06:21:34;;;;;;;;;;;7.30;99.90;;;;;;4947587;28;19911;-85
2022/11/05 06:24:01;;;;;;;;;;;7.30;99.90;;;;;;4957356;28;20393;-86
2022/11/05 06:26:26;;;;;;;;;;;7.40;99.90;;;;;;4938999;28;19911;-85
2022/11/05 06:28:52;;;;;;;;;;;7.40;99.90;;;;;;4941045;28;19910;-86
2022/11/05 06:31:17;;;;;;;;;;;7.40;99.90;;;;;;4932556;28;19985;-87
2022/11/05 06:33:42;;;;;;;;;;;7.40;99.90;;;;;;4944814;29;20372;-87
2022/11/05 06:36:11;;;;;;;;;;;7.50;99.90;;;;;;4950433;28;20654;-87
2022/11/05 06:38:36;;;;;;;;;;;7.40;99.90;;;;;;4962113;28;19919;-88
2022/11/05 06:41:02;;;;;;;;;;;7.40;99.90;;;;;;4954777;28;20341;-87
2022/11/05 06:43:28;;;;;;;;;;;7.40;99.90;;;;;;4956066;28;19918;-86
2022/11/05 06:45:54;;;;;;;;;;;7.40;99.90;;;;;;4937081;28;19915;-86
2022/11/05 06:48:19;;;;;;;;;;;7.40;99.90;;;;;;4939222;28;19910;-86
2022/11/05 06:50:45;;;;;;;;;;;7.40;99.90;;;;;;4938597;29;19956;-88
2022/11/05 06:53:10;;;;;;;;;;;7.40;99.90;;;;;;4949170;28;19919;-83
2022/11/05 06:55:36;;;;;;;;;;;7.50;99.90;;;;;;4950571;28;19910;-87
2022/11/05 06:58:01;;;;;;;;;;;7.40;99.90;;;;;;4952440;28;19914;-86
2022/11/05 07:00:27;;;;;;;;;;;7.40;99.90;;;;;;4953855;28;20266;-86
2022/11/05 07:02:54;;;;;;;;;;;7.40;99.90;;;;;;4949768;29;20591;-86
2022/11/05 07:05:20;;;;;;;;;;;7.40;99.90;;;;;;4948627;28;19911;-86
2022/11/05 07:07:46;;;;;;;;;;;7.40;99.90;;;;;;4950658;29;20293;-86
2022/11/05 07:10:15;;;;;;;;;;;7.40;99.90;;;;;;4947969;28;19922;-86
2022/11/05 07:12:41;;;;;;;;;;;7.40;99.90;;;;;;4944940;28;19910;-87
2022/11/05 07:15:11;;;;;;;;;;;7.40;99.90;;;;;;4949508;28;19920;-85
2022/11/05 07:17:36;;;;;;;;;;;7.60;99.90;;;;;;4948767;28;20431;-85
2022/11/05 07:20:03;;;;;;;;;;;7.50;99.90;;;;;;4961854;28;19950;-82
2022/11/05 07:22:28;;;;;;;;;;;7.60;99.90;;;;;;4950181;28;19914;-85
2022/11/05 07:24:54;;;;;;;;;;;7.60;99.90;;;;;;4938238;29;19910;-86
2022/11/05 07:27:19;;;;;;;;;;;7.60;99.90;;;;;;4950372;29;19906;-86
2022/11/05 07:29:45;;;;;;;;;;;7.70;99.90;;;;;;4943551;28;20325;-86
2022/11/05 07:32:10;;;;;;;;;;;7.70;99.90;;;;;;4941048;28;19924;-83
2022/11/05 07:34:35;;;;;;;;;;;7.70;99.90;;;;;;4941961;29;19911;-84
2022/11/05 07:37:01;;;;;;;;;;;7.60;99.90;;;;;;4957757;28;19918;-87
2022/11/05 07:39:26;;;;;;;;;;;7.70;99.90;;;;;;4949242;28;19921;-88
2022/11/05 07:41:53;;;;;;;;;;;7.70;99.90;;;;;;4954118;28;20262;-88
2022/11/05 07:44:19;;;;;;;;;;;7.70;99.90;;;;;;4936225;28;20334;-86
2022/11/05 07:46:44;;;;;;;;;;;7.70;99.90;;;;;;4947666;28;20000;-85
2022/11/05 07:49:10;;;;;;;;;;;7.80;99.90;;;;;;4949925;28;19911;-87
2022/11/05 07:51:35;;;;;;;;;;;7.70;99.90;;;;;;4960575;28;19914;-86
2022/11/05 07:54:01;;;;;;;;;;;7.60;99.90;;;;;;4954811;28;20798;-85
2022/11/05 07:56:26;;;;;;;;;;;7.80;99.90;;;;;;4957087;28;19914;-85
2022/11/05 07:58:51;;;;;;;;;;;7.90;99.90;;;;;;4939901;29;19916;-88
2022/11/05 08:01:17;;;;;;;;;;;7.80;99.90;;;;;;4947221;28;19934;-84
2022/11/05 08:03:42;;;;;;;;;;;7.80;99.90;;;;;;4936132;28;20278;-86
2022/11/05 08:06:08;;;;;;;;;;;7.60;99.90;;;;;;4933241;29;19913;-85
2022/11/05 08:08:33;;;;;;;;;;;7.50;99.90;;;;;;4947378;29;19953;-83
2022/11/05 08:11:03;;;;;;;;;;;7.50;99.90;;;;;;4951832;28;20001;-84
2022/11/05 08:13:28;;;;;;;;;;;7.50;99.90;;;;;;4953414;28;20358;-85
2022/11/05 08:15:55;;;;;;;;;;;7.50;99.90;;;;;;4950094;28;20013;-85
2022/11/05 08:18:20;;;;;;;;;;;7.40;99.90;;;;;;4949738;29;19918;-86
2022/11/05 08:20:46;;;;;;;;;;;7.50;99.90;;;;;;4952623;28;19910;-86
2022/11/05 08:23:11;;;;;;;;;;;7.60;99.90;;;;;;4952911;28;20016;-86
2022/11/05 08:25:37;;;;;;;;;;;7.70;99.90;;;;;;4954838;28;20262;-84
2022/11/05 08:28:03;;;;;;;;;;;7.80;99.90;;;;;;4947179;28;20429;-84
2022/11/05 08:30:29;;;;;;;;;;;8.00;99.90;;;;;;4950948;28;19929;-87
2022/11/05 08:32:56;;;;;;;;;;;8.00;99.90;;;;;;4943720;28;19910;-87
2022/11/05 08:35:21;;;;;;;;;;;8.20;99.90;;;;;;4945498;29;20274;-85
2022/11/05 08:37:47;;;;;;;;;;;8.30;99.90;;;;;;4949991;29;19961;-85
2022/11/05 08:40:12;;;;;;;;;;;8.40;99.90;;;;;;4946533;29;19969;-87
2022/11/05 08:42:38;;;;;;;;;;;8.40;99.90;;;;;;4956225;28;19925;-81
2022/11/05 08:45:03;;;;;;;;;;;8.50;99.90;;;;;;4954409;28;19910;-86
2022/11/05 08:47:29;;;;;;;;;;;8.50;99.90;;;;;;4952607;28;19935;-84
2022/11/05 08:49:54;;;;;;;;;;;8.60;99.90;;;;;;4941841;29;19917;-85
2022/11/05 08:52:20;;;;;;;;;;;8.50;99.90;;;;;;4952091;28;19910;-86
2022/11/05 08:54:45;;;;;;;;;;;8.60;99.90;;;;;;4939644;29;19910;-85
2022/11/05 08:57:11;;;;;;;;;;;8.80;99.90;;;;;;4944646;28;19910;-85
2022/11/05 08:59:36;;;;;;;;;;;8.90;99.90;;;;;;4950010;28;19914;-86
2022/11/05 09:02:02;;;;;;;;;;;9.00;99.90;;;;;;4949139;28;19917;-79
2022/11/05 09:04:27;;;;;;;;;;;8.90;99.90;;;;;;4950477;28;19925;-84
2022/11/05 09:06:52;;;;;;;;;;;9.10;99.90;;;;;;4949646;28;19918;-77
2022/11/05 09:09:18;;;;;;;;;;;9.20;99.90;;;;;;4959074;28;19965;-78
2022/11/05 09:11:44;;;;;;;;;;;9.20;99.90;;;;;;4950161;28;19973;-79
2022/11/05 09:14:25;;;;;;;;;;;9.30;99.90;;;;;;4952518;28;20399;-73
2022/11/05 09:16:51;;;;;;;;;;;9.40;99.90;;;;;;4949830;28;19914;-74
2022/11/05 09:19:17;;;;;;;;;;;9.50;99.90;;;;;;4948517;28;19915;-73
2022/11/05 09:21:42;;;;;;;;;;;9.50;99.90;;;;;;4949157;28;19993;-73
2022/11/05 09:24:07;;;;;;;;;;;9.50;99.90;;;;;;4949661;28;19920;-73
2022/11/05 09:26:33;;;;;;;;;;;9.60;99.90;;;;;;4938642;29;19953;-73
2022/11/05 09:28:58;;;;;;;;;;;9.70;99.90;;;;;;4949674;28;19911;-73
2022/11/05 09:31:24;;;;;;;;;;;9.80;99.90;;;;;;4956054;28;19925;-74
2022/11/05 09:33:49;;;;;;;;;;;9.80;99.90;;;;;;4948420;28;19910;-74
2022/11/05 09:36:15;;;;;;;;;;;9.90;99.90;;;;;;4949860;28;20535;-74
2022/11/05 09:38:40;;;;;;;;;;;10.00;99.90;;;;;;4949086;29;20350;-74
2022/11/05 09:41:14;;;;;;;;;;;10.00;99.90;;;;;;4946432;28;19910;-74
2022/11/05 09:43:46;;;;;;;;;;;10.10;99.90;;;;;;4950719;28;19914;-73
2022/11/05 09:46:24;;;;;;;;;;;10.20;99.90;;;;;;4952045;29;19910;-75
2022/11/05 09:48:52;;;;;;;;;;;10.30;99.90;;;;;;4951059;29;19982;-73
2022/11/05 09:51:18;;;;;;;;;;;10.50;99.90;;;;;;4940116;28;19962;-73
2022/11/05 09:53:44;;;;;;;;;;;10.50;99.90;;;;;;4946199;29;19911;-73
2022/11/05 09:56:21;;;;;;;;;;;10.70;99.90;;;;;;4951715;29;19962;-73
2022/11/05 09:58:50;;;;;;;;;;;10.80;99.90;;;;;;4949895;29;19914;-73
2022/11/05 10:01:19;;;;;;;;;;;10.80;99.90;;;;;;4952793;29;19930;-73
2022/11/05 10:03:47;;;;;;;;;;;10.80;99.90;;;;;;4949476;29;20408;-73
2022/11/05 10:06:16;;;;;;;;;;;10.90;99.90;;;;;;4951902;28;19910;-75
2022/11/05 10:08:43;;;;;;;;;;;10.80;99.90;;;;;;4943394;29;19915;-74
2022/11/05 10:11:12;;;;;;;;;;;10.80;99.90;;;;;;4948261;28;20009;-74
2022/11/05 10:13:40;;;;;;;;;;;10.90;99.90;;;;;;4950602;29;19921;-75
2022/11/05 10:16:14;;;;;;;;;;;11.20;99.90;;;;;;4949561;29;19993;-74
2022/11/05 10:18:41;;;;;;;;;;;11.20;99.90;;;;;;4938277;28;19911;-74
2022/11/05 10:21:13;;;;;;;;;;;11.10;99.90;;;;;;4948904;28;20050;-75
2022/11/05 10:23:38;;;;;;;;;;;11.00;99.90;;;;;;4951420;28;19960;-74
2022/11/05 10:26:09;;;;;;;;;;;11.10;99.90;;;;;;4956252;28;20017;-74
2022/11/05 10:28:34;;;;;;;;;;;11.30;99.90;;;;;;4942557;28;20361;-74
2022/11/05 10:31:02;;;;;;;;;;;11.40;99.90;;;;;;4946001;28;19926;-74
2022/11/05 10:33:32;;;;;;;;;;;11.60;99.90;;;;;;4955565;28;19917;-74
2022/11/05 10:36:01;;;;;;;;;;;11.70;99.90;;;;;;4951396;28;19956;-74
2022/11/05 10:38:26;;;;;;;;;;;11.70;99.90;;;;;;4957719;28;20005;-74
2022/11/05 10:41:04;;;;;;;;;;;12.40;99.90;;;;;;4950439;28;20058;-74
2022/11/05 10:43:32;;;;;;;;;;;13.70;99.90;;;;;;4946311;28;19918;-75
2022/11/05 10:46:03;;;;;;;;;;;14.50;99.90;;;;;;4949852;29;19919;-74
2022/11/05 10:48:47;;;;;;;;;;;15.80;96.00;;;;;;4954867;28;20320;-75
2022/11/05 10:51:13;;;;;;;;;;;17.60;88.80;;;;;;4966960;28;20461;-75
2022/11/05 10:53:41;;;;;;;;;;;19.80;78.50;;;;;;4937295;28;19906;-75
2022/11/05 10:56:25;;;;;;;;;;;20.20;70.60;;;;;;4948023;29;19973;-74
2022/11/05 10:58:55;;;;;;;;;;;19.10;72.50;;;;;;4947472;29;20376;-74
2022/11/05 11:01:22;;;;;;;;;;;19.30;69.70;;;;;;4947701;28;19980;-74
2022/11/05 11:03:51;;;;;;;;;;;20.90;64.90;;;;;;4939200;29;19994;-74
2022/11/05 11:06:27;;;;;;;;;;;21.30;64.80;;;;;;4950959;29;19914;-72
2022/11/05 11:08:54;;;;;;;;;;;22.10;60.90;;;;;;4949762;29;20634;-73
2022/11/05 11:11:28;;;;;;;;;;;20.70;63.70;;;;;;4935644;28;20069;-73
2022/11/05 11:13:56;;;;;;;;;;;21.40;61.20;;;;;;4931952;29;19906;-73
2022/11/05 11:16:22;;;;;;;;;;;21.00;60.30;;;;;;4941447;29;20348;-73
2022/11/05 11:18:55;;;;;;;;;;;21.40;58.60;;;;;;4949344;29;19914;-73
2022/11/05 11:21:25;;;;;;;;;;;21.40;59.60;;;;;;4950452;29;19911;-73
2022/11/05 11:23:53;;;;;;;;;;;23.70;54.60;;;;;;4958095;28;19961;-73
2022/11/05 11:26:20;;;;;;;;;;;24.70;53.20;;;;;;4957563;28;19917;-72
2022/11/05 11:28:55;;;;;;;;;;;24.70;50.80;;;;;;4946707;28;19910;-73
2022/11/05 11:31:22;;;;;;;;;;;25.70;50.10;;;;;;4949919;28;19985;-73
2022/11/05 11:33:49;;;;;;;;;;;25.80;49.40;;;;;;4963913;28;19918;-74
2022/11/05 11:36:16;;;;;;;;;;;26.30;48.70;;;;;;4954044;28;20039;-72
2022/11/05 11:38:41;;;;;;;;;;;27.50;45.10;;;;;;4942994;29;19915;-72
2022/11/05 11:41:10;;;;;;;;;;;26.70;45.50;;;;;;4942796;28;20017;-72
2022/11/05 11:43:37;;;;;;;;;;;26.90;44.80;;;;;;4938982;28;19964;-72
2022/11/05 11:46:04;;;;;;;;;;;27.50;44.80;;;;;;4951651;28;19953;-73
2022/11/05 11:48:32;;;;;;;;;;;27.50;44.20;;;;;;4938618;28;19922;-72
2022/11/05 11:50:58;;;;;;;;;;;27.40;43.90;;;;;;4950470;29;20372;-73
2022/11/05 11:53:26;;;;;;;;;;;25.80;44.80;;;;;;4948463;28;19911;-73
2022/11/05 11:55:54;;;;;;;;;;;26.30;44.20;;;;;;4956799;28;19914;-75
2022/11/05 11:58:20;;;;;;;;;;;26.80;43.70;;;;;;4953490;28;19915;-73
2022/11/05 12:00:48;;;;;;;;;;;26.20;44.40;;;;;;4951878;28;19934;-73
2022/11/05 12:03:22;;;;;;;;;;;22.30;51.10;;;;;;4948563;28;19998;-73
2022/11/05 12:06:05;;;;;;;;;;;21.30;54.40;;;;;;4939691;29;19915;-73
2022/11/05 12:08:40;;;;;;;;;;;21.80;54.10;;;;;;4943394;28;20277;-73
2022/11/05 12:11:06;;;;;;;;;;;24.00;49.70;;;;;;4947914;29;19948;-74
2022/11/05 12:13:46;;;;;;;;;;;21.00;54.50;;;;;;4941997;29;19953;-74
2022/11/05 12:16:18;;;;;;;;;;;21.10;54.50;;;;;;4931017;29;20354;-74
2022/11/05 12:19:02;;;;;;;;;;;20.40;54.70;;;;;;4939385;28;20321;-74
2022/11/05 12:21:36;;;;;;;;;;;18.30;60.40;;;;;;4946974;28;19970;-73
2022/11/05 12:24:13;;;;;;;;;;;17.60;64.30;;;;;;4936688;28;19915;-74
2022/11/05 12:26:44;;;;;;;;;;;16.30;69.70;;;;;;4934846;29;19914;-73
2022/11/05 12:29:25;;;;;;;;;;;15.20;75.10;;;;;;4935045;28;19907;-74
2022/11/05 12:32:05;;;;;;;;;;;14.00;79.40;;;;;;4941197;29;19945;-73
2022/11/05 12:34:30;;;;;;;;;;;13.20;85.60;;;;;;4949844;28;19929;-74
2022/11/05 12:37:01;;;;;;;;;;;12.70;90.30;;;;;;4950337;29;20345;-74
2022/11/05 12:39:32;;;;;;;;;;;12.40;92.30;;;;;;4950113;29;19906;-74
2022/11/05 12:41:57;;;;;;;;;;;12.20;94.10;;;;;;4946292;29;20632;-74
2022/11/05 12:44:41;;;;;;;;;;;12.20;95.50;;;;;;4930763;29;19939;-74
2022/11/05 12:47:20;;;;;;;;;;;12.10;96.50;;;;;;4930914;29;19925;-73
2022/11/05 12:50:01;;;;;;;;;;;12.10;97.10;;;;;;4930622;29;20444;-73
2022/11/05 12:52:40;;;;;;;;;;;18.90;79.00;;;;;;4931203;29;19911;-73
2022/11/05 12:55:09;;;;;;;;;;;18.60;65.30;;;;;;4948941;28;19910;-73
2022/11/05 12:57:37;;;;;;;;;;;18.80;70.00;;;;;;4952639;28;19910;-72
2022/11/05 13:00:09;;;;;;;;;;;17.00;72.70;;;;;;4937556;28;20275;-73
2022/11/05 13:02:48;;;;;;;;;;;14.70;80.30;;;;;;4933935;29;19911;-73
2022/11/05 13:05:16;;;;;;;;;;;15.50;78.00;;;;;;4939608;29;19915;-73
2022/11/05 13:08:06;;;;;;;;;;;13.80;84.30;;;;;;4934113;29;19906;-73
2022/11/05 13:10:33;;;;;;;;;;;13.40;88.90;;;;;;4933209;29;19987;-73
2022/11/05 13:13:03;;;;;;;;;;;13.20;90.60;;;;;;4934011;29;20001;-73
2022/11/05 13:15:34;;;;;;;;;;;13.50;91.40;;;;;;4942943;29;19914;-72
2022/11/05 13:18:20;;;;;;;;;;;13.40;90.60;;;;;;4952899;28;19930;-73
2022/11/05 13:20:48;;;;;;;;;;;13.60;90.10;;;;;;4952646;28;19910;-72
2022/11/05 13:23:24;;;;;;;;;;;13.60;90.50;;;;;;4952820;28;19911;-73
2022/11/05 13:25:53;;;;;;;;;;;13.40;90.60;;;;;;4952672;29;19910;-74
2022/11/05 13:28:31;;;;;;;;;;;13.10;91.50;;;;;;4951103;28;20344;-73
2022/11/05 13:30:59;;;;;;;;;;;13.10;92.00;;;;;;4948343;28;19977;-73
2022/11/05 13:33:28;;;;;;;;;;;13.10;91.90;;;;;;4933655;29;20345;-73
2022/11/05 13:38:57;;;;;;;;;;;13.20;92.40;;;;;;4933486;29;19906;-73
2022/11/05 13:38:59;;;;;;;;;;;13.30;92.10;;;;;;4933312;29;20381;-73
2022/11/05 13:41:37;;;;;;;;;;;13.20;92.10;;;;;;4941203;29;20005;-73
2022/11/05 13:44:21;;;;;;;;;;;13.50;92.50;;;;;;4934332;28;19915;-73
2022/11/05 13:46:55;;;;;;;;;;;13.90;91.30;;;;;;4941518;29;19922;-72
2022/11/05 13:49:31;;;;;;;;;;;14.20;90.60;;;;;;4937633;29;19917;-73
2022/11/05 13:52:06;;;;;;;;;;;14.40;90.10;;;;;;4936237;28;19954;-73
2022/11/05 13:54:50;;;;;;;;;;;15.20;88.10;;;;;;4933313;29;19907;-73
2022/11/05 13:57:24;;;;;;;;;;;15.20;86.00;;;;;;4933328;29;19915;-73
2022/11/05 14:00:05;;;;;;;;;;;15.20;85.60;;;;;;4942242;28;19925;-72
2022/11/05 14:02:52;;;;;;;;;;;15.70;84.40;;;;;;4939525;28;19923;-71
2022/11/05 14:05:23;;;;;;;;;;;14.90;84.20;;;;;;4947571;28;19918;-71
2022/11/05 14:07:48;;;;;;;;;;;14.70;86.50;;;;;;4950407;28;19910;-73
2022/11/05 14:10:24;;;;;;;;;;;14.40;88.20;;;;;;4950144;28;20333;-72
2022/11/05 14:12:51;;;;;;;;;;;14.30;88.00;;;;;;4945685;28;19969;-71
2022/11/05 14:15:21;;;;;;;;;;;13.90;89.50;;;;;;4945416;28;19910;-69
2022/11/05 14:17:58;;;;;;;;;;;14.40;88.80;;;;;;4945467;29;20366;-70
2022/11/05 14:20:36;;;;;;;;;;;14.50;88.00;;;;;;4958020;28;19965;-71
2022/11/05 14:23:16;;;;;;;;;;;15.90;84.40;;;;;;4943225;28;19915;-71
2022/11/05 14:25:42;;;;;;;;;;;17.80;73.40;;;;;;4952964;28;19911;-71
2022/11/05 14:28:26;;;;;;;;;;;15.80;76.50;;;;;;4943515;29;20259;-72
2022/11/05 14:30:52;;;;;;;;;;;14.10;82.80;;;;;;4944657;28;19922;-72
2022/11/05 14:33:23;;;;;;;;;;;13.20;88.10;;;;;;4953043;28;19918;-72
2022/11/05 14:35:48;;;;;;;;;;;12.80;90.30;;;;;;4943536;28;19922;-73
2022/11/05 14:38:32;;;;;;;;;;;12.50;90.20;;;;;;4952753;28;19910;-72
2022/11/05 14:40:59;;;;;;;;;;;12.30;90.80;;;;;;4946516;28;19918;-72
2022/11/05 14:43:25;;;;;;;;;;;12.00;91.10;;;;;;4942834;28;19914;-72
2022/11/05 14:46:01;;;;;;;;;;;11.90;91.90;;;;;;4944241;28;19918;-72
2022/11/05 14:48:34;;;;;;;;;;;11.80;92.50;;;;;;4947802;28;19917;-71
2022/11/05 14:50:59;;;;;;;;;;;11.60;93.10;;;;;;4959309;28;19915;-73
2022/11/05 14:53:36;;;;;;;;;;;11.50;93.70;;;;;;4946564;28;19914;-72
2022/11/05 14:56:06;;;;;;;;;;;11.50;94.30;;;;;;4953900;28;20320;-71
2022/11/05 14:58:34;;;;;;;;;;;11.40;95.30;;;;;;4953543;28;20311;-71
2022/11/05 15:01:00;;;;;;;;;;;11.30;96.00;;;;;;4942194;29;19914;-71
2022/11/05 15:03:43;;;;;;;;;;;11.20;96.50;;;;;;4947240;28;20447;-73
2022/11/05 15:06:18;;;;;;;;;;;11.10;97.40;;;;;;4949013;29;20005;-71
2022/11/05 15:08:46;;;;;;;;;;;10.90;98.70;;;;;;4956387;28;19942;-72
2022/11/05 15:11:11;;;;;;;;;;;10.80;99.90;;;;;;4945777;28;20363;-71
2022/11/05 15:13:41;;;;;;;;;;;10.70;99.90;;;;;;4948881;29;19957;-71